sensor_id;sensor_type;location;lat;lon;timestamp;P1;durP1;ratioP1;P2;durP2;ratioP2
29196;SDS011;62796;42.654;23.316;2022-09-16T00:00:23;10.50;;;3.33;;
29196;SDS011;62796;42.654;23.316;2022-09-16T00:02:52;11.77;;;3.50;;
29196;SDS011;62796;42.654;23.316;2022-09-16T00:05:18;12.88;;;3.58;;
29196;SDS011;62796;42.654;23.316;2022-09-16T00:07:44;13.05;;;3.50;;
29196;SDS011;62796;42.654;23.316;2022-09-16T00:10:10;6.93;;;2.78;;
29196;SDS011;62796;42.654;23.316;2022-09-16T00:12:35;8.43;;;3.15;;
29196;SDS011;62796;42.654;23.316;2022-09-16T00:15:01;9.52;;;3.35;;
29196;SDS011;62796;42.654;23.316;2022-09-16T00:17:26;7.75;;;3.08;;
29196;SDS011;62796;42.654;23.316;2022-09-16T00:19:54;13.93;;;3.47;;
29196;SDS011;62796;42.654;23.316;2022-09-16T00:22:20;9.55;;;3.10;;
29196;SDS011;62796;42.654;23.316;2022-09-16T00:24:46;11.27;;;3.28;;
29196;SDS011;62796;42.654;23.316;2022-09-16T00:27:12;17.05;;;3.47;;
29196;SDS011;62796;42.654;23.316;2022-09-16T00:29:38;10.32;;;2.85;;
29196;SDS011;62796;42.654;23.316;2022-09-16T00:32:03;9.27;;;3.13;;
29196;SDS011;62796;42.654;23.316;2022-09-16T00:34:29;10.40;;;3.20;;
29196;SDS011;62796;42.654;23.316;2022-09-16T00:36:54;13.57;;;3.33;;
29196;SDS011;62796;42.654;23.316;2022-09-16T00:39:20;7.32;;;2.88;;
29196;SDS011;62796;42.654;23.316;2022-09-16T00:41:45;9.15;;;3.22;;
29196;SDS011;62796;42.654;23.316;2022-09-16T00:47:14;11.77;;;2.88;;
29196;SDS011;62796;42.654;23.316;2022-09-16T00:49:44;8.05;;;2.90;;
29196;SDS011;62796;42.654;23.316;2022-09-16T00:52:10;5.75;;;2.60;;
29196;SDS011;62796;42.654;23.316;2022-09-16T00:54:37;12.07;;;2.67;;
29196;SDS011;62796;42.654;23.316;2022-09-16T00:57:04;16.88;;;3.28;;
29196;SDS011;62796;42.654;23.316;2022-09-16T00:59:35;12.20;;;3.10;;
29196;SDS011;62796;42.654;23.316;2022-09-16T01:02:04;10.07;;;3.03;;
29196;SDS011;62796;42.654;23.316;2022-09-16T01:04:34;11.23;;;3.28;;
29196;SDS011;62796;42.654;23.316;2022-09-16T01:07:03;6.97;;;2.92;;
29196;SDS011;62796;42.654;23.316;2022-09-16T01:09:29;16.05;;;3.08;;
29196;SDS011;62796;42.654;23.316;2022-09-16T01:11:55;10.63;;;3.22;;
29196;SDS011;62796;42.654;23.316;2022-09-16T01:14:21;17.52;;;3.65;;
29196;SDS011;62796;42.654;23.316;2022-09-16T01:22:57;4.82;;;2.85;;
29196;SDS011;62796;42.654;23.316;2022-09-16T01:28:26;7.72;;;2.78;;
29196;SDS011;62796;42.654;23.316;2022-09-16T01:39:43;9.25;;;3.00;;
29196;SDS011;62796;42.654;23.316;2022-09-16T01:43:18;12.00;;;3.42;;
29196;SDS011;62796;42.654;23.316;2022-09-16T01:45:38;6.18;;;2.42;;
29196;SDS011;62796;42.654;23.316;2022-09-16T01:51:04;8.07;;;3.00;;
29196;SDS011;62796;42.654;23.316;2022-09-16T01:53:43;8.20;;;2.80;;
29196;SDS011;62796;42.654;23.316;2022-09-16T01:59:08;9.93;;;2.85;;
29196;SDS011;62796;42.654;23.316;2022-09-16T02:01:48;12.20;;;2.65;;
29196;SDS011;62796;42.654;23.316;2022-09-16T02:04:29;9.60;;;2.90;;
29196;SDS011;62796;42.654;23.316;2022-09-16T02:07:00;8.55;;;2.83;;
29196;SDS011;62796;42.654;23.316;2022-09-16T02:09:33;8.55;;;2.88;;
29196;SDS011;62796;42.654;23.316;2022-09-16T02:12:05;11.23;;;2.95;;
29196;SDS011;62796;42.654;23.316;2022-09-16T02:14:41;5.43;;;2.30;;
29196;SDS011;62796;42.654;23.316;2022-09-16T02:17:09;11.40;;;3.42;;
29196;SDS011;62796;42.654;23.316;2022-09-16T02:19:41;11.25;;;2.83;;
29196;SDS011;62796;42.654;23.316;2022-09-16T02:22:12;11.80;;;2.53;;
29196;SDS011;62796;42.654;23.316;2022-09-16T02:24:41;9.43;;;2.95;;
29196;SDS011;62796;42.654;23.316;2022-09-16T02:27:10;11.07;;;3.20;;
29196;SDS011;62796;42.654;23.316;2022-09-16T02:29:49;12.25;;;3.30;;
29196;SDS011;62796;42.654;23.316;2022-09-16T02:32:18;13.23;;;3.07;;
29196;SDS011;62796;42.654;23.316;2022-09-16T02:34:47;12.82;;;2.80;;
29196;SDS011;62796;42.654;23.316;2022-09-16T02:37:23;9.73;;;2.80;;
29196;SDS011;62796;42.654;23.316;2022-09-16T02:39:55;9.80;;;2.92;;
29196;SDS011;62796;42.654;23.316;2022-09-16T02:42:26;13.35;;;2.97;;
29196;SDS011;62796;42.654;23.316;2022-09-16T02:44:52;7.78;;;2.85;;
29196;SDS011;62796;42.654;23.316;2022-09-16T02:52:43;6.57;;;3.08;;
29196;SDS011;62796;42.654;23.316;2022-09-16T02:57:49;9.95;;;3.00;;
29196;SDS011;62796;42.654;23.316;2022-09-16T03:00:15;9.63;;;2.78;;
29196;SDS011;62796;42.654;23.316;2022-09-16T03:02:41;9.35;;;3.00;;
29196;SDS011;62796;42.654;23.316;2022-09-16T03:05:07;9.00;;;2.97;;
29196;SDS011;62796;42.654;23.316;2022-09-16T03:07:33;13.52;;;3.25;;
29196;SDS011;62796;42.654;23.316;2022-09-16T03:09:59;9.27;;;2.70;;
29196;SDS011;62796;42.654;23.316;2022-09-16T03:15:19;14.88;;;3.08;;
29196;SDS011;62796;42.654;23.316;2022-09-16T03:18:13;10.65;;;3.10;;
29196;SDS011;62796;42.654;23.316;2022-09-16T03:23:39;14.77;;;3.40;;
29196;SDS011;62796;42.654;23.316;2022-09-16T03:26:45;14.45;;;3.55;;
29196;SDS011;62796;42.654;23.316;2022-09-16T03:32:38;10.63;;;2.90;;
29196;SDS011;62796;42.654;23.316;2022-09-16T03:38:01;12.32;;;3.63;;
29196;SDS011;62796;42.654;23.316;2022-09-16T03:40:28;12.02;;;3.45;;
29196;SDS011;62796;42.654;23.316;2022-09-16T03:42:56;7.43;;;2.67;;
29196;SDS011;62796;42.654;23.316;2022-09-16T03:45:22;8.77;;;3.13;;
29196;SDS011;62796;42.654;23.316;2022-09-16T03:47:49;13.65;;;2.70;;
29196;SDS011;62796;42.654;23.316;2022-09-16T03:50:16;11.43;;;2.92;;
29196;SDS011;62796;42.654;23.316;2022-09-16T03:52:43;11.75;;;3.28;;
29196;SDS011;62796;42.654;23.316;2022-09-16T03:55:08;10.52;;;3.20;;
29196;SDS011;62796;42.654;23.316;2022-09-16T03:57:35;10.60;;;3.47;;
29196;SDS011;62796;42.654;23.316;2022-09-16T04:00:01;15.63;;;3.45;;
29196;SDS011;62796;42.654;23.316;2022-09-16T04:02:28;12.65;;;3.53;;
29196;SDS011;62796;42.654;23.316;2022-09-16T04:04:53;17.40;;;3.50;;
29196;SDS011;62796;42.654;23.316;2022-09-16T04:07:18;9.23;;;3.63;;
29196;SDS011;62796;42.654;23.316;2022-09-16T04:09:44;10.65;;;3.55;;
29196;SDS011;62796;42.654;23.316;2022-09-16T04:12:10;10.55;;;3.65;;
29196;SDS011;62796;42.654;23.316;2022-09-16T04:14:35;16.38;;;4.50;;
29196;SDS011;62796;42.654;23.316;2022-09-16T04:17:00;21.67;;;4.35;;
29196;SDS011;62796;42.654;23.316;2022-09-16T04:19:26;16.08;;;4.68;;
29196;SDS011;62796;42.654;23.316;2022-09-16T04:21:52;12.48;;;4.28;;
29196;SDS011;62796;42.654;23.316;2022-09-16T04:24:17;16.13;;;3.72;;
29196;SDS011;62796;42.654;23.316;2022-09-16T04:26:43;9.95;;;3.88;;
29196;SDS011;62796;42.654;23.316;2022-09-16T04:29:09;15.38;;;4.03;;
29196;SDS011;62796;42.654;23.316;2022-09-16T04:31:34;15.30;;;3.97;;
29196;SDS011;62796;42.654;23.316;2022-09-16T04:34:00;14.27;;;3.35;;
29196;SDS011;62796;42.654;23.316;2022-09-16T04:36:26;19.88;;;3.92;;
29196;SDS011;62796;42.654;23.316;2022-09-16T04:38:52;16.83;;;4.28;;
29196;SDS011;62796;42.654;23.316;2022-09-16T04:41:18;15.77;;;4.57;;
29196;SDS011;62796;42.654;23.316;2022-09-16T04:43:45;18.98;;;4.10;;
29196;SDS011;62796;42.654;23.316;2022-09-16T04:46:11;15.18;;;4.20;;
29196;SDS011;62796;42.654;23.316;2022-09-16T04:48:37;20.10;;;4.18;;
29196;SDS011;62796;42.654;23.316;2022-09-16T04:51:09;15.50;;;4.55;;
29196;SDS011;62796;42.654;23.316;2022-09-16T04:53:37;32.97;;;6.22;;
29196;SDS011;62796;42.654;23.316;2022-09-16T04:56:05;22.30;;;4.65;;
29196;SDS011;62796;42.654;23.316;2022-09-16T04:58:41;16.00;;;5.97;;
29196;SDS011;62796;42.654;23.316;2022-09-16T05:01:08;22.33;;;6.13;;
29196;SDS011;62796;42.654;23.316;2022-09-16T05:03:37;23.02;;;6.07;;
29196;SDS011;62796;42.654;23.316;2022-09-16T05:06:08;43.10;;;7.15;;
29196;SDS011;62796;42.654;23.316;2022-09-16T05:08:38;26.17;;;5.28;;
29196;SDS011;62796;42.654;23.316;2022-09-16T05:11:08;42.75;;;6.72;;
29196;SDS011;62796;42.654;23.316;2022-09-16T05:13:38;30.88;;;5.75;;
29196;SDS011;62796;42.654;23.316;2022-09-16T05:16:05;30.55;;;5.75;;
29196;SDS011;62796;42.654;23.316;2022-09-16T05:18:35;34.55;;;5.68;;
29196;SDS011;62796;42.654;23.316;2022-09-16T05:21:02;36.25;;;10.90;;
29196;SDS011;62796;42.654;23.316;2022-09-16T05:23:29;35.45;;;16.88;;
29196;SDS011;62796;42.654;23.316;2022-09-16T05:26:00;41.90;;;15.50;;
29196;SDS011;62796;42.654;23.316;2022-09-16T05:28:36;30.10;;;10.68;;
29196;SDS011;62796;42.654;23.316;2022-09-16T05:33:34;27.52;;;7.90;;
29196;SDS011;62796;42.654;23.316;2022-09-16T05:36:04;35.88;;;10.95;;
29196;SDS011;62796;42.654;23.316;2022-09-16T05:38:33;42.20;;;9.93;;
29196;SDS011;62796;42.654;23.316;2022-09-16T05:41:00;25.77;;;7.85;;
29196;SDS011;62796;42.654;23.316;2022-09-16T05:43:26;34.15;;;7.32;;
29196;SDS011;62796;42.654;23.316;2022-09-16T05:45:52;22.08;;;6.25;;
29196;SDS011;62796;42.654;23.316;2022-09-16T05:48:18;34.38;;;7.53;;
29196;SDS011;62796;42.654;23.316;2022-09-16T05:50:51;32.88;;;7.57;;
29196;SDS011;62796;42.654;23.316;2022-09-16T05:53:17;30.52;;;6.35;;
29196;SDS011;62796;42.654;23.316;2022-09-16T05:55:42;39.22;;;7.13;;
29196;SDS011;62796;42.654;23.316;2022-09-16T05:58:22;26.08;;;5.78;;
29196;SDS011;62796;42.654;23.316;2022-09-16T06:00:47;26.95;;;6.15;;
29196;SDS011;62796;42.654;23.316;2022-09-16T06:03:13;27.85;;;5.85;;
29196;SDS011;62796;42.654;23.316;2022-09-16T06:05:38;21.83;;;5.15;;
29196;SDS011;62796;42.654;23.316;2022-09-16T06:08:04;21.45;;;4.18;;
29196;SDS011;62796;42.654;23.316;2022-09-16T06:10:29;22.55;;;4.88;;
29196;SDS011;62796;42.654;23.316;2022-09-16T06:12:54;25.73;;;5.70;;
29196;SDS011;62796;42.654;23.316;2022-09-16T06:15:20;20.63;;;4.25;;
29196;SDS011;62796;42.654;23.316;2022-09-16T06:17:45;23.88;;;4.30;;
29196;SDS011;62796;42.654;23.316;2022-09-16T06:20:11;18.90;;;5.53;;
29196;SDS011;62796;42.654;23.316;2022-09-16T06:22:38;18.90;;;4.32;;
29196;SDS011;62796;42.654;23.316;2022-09-16T06:25:05;15.77;;;3.95;;
29196;SDS011;62796;42.654;23.316;2022-09-16T06:27:31;23.38;;;5.72;;
29196;SDS011;62796;42.654;23.316;2022-09-16T06:29:57;23.45;;;6.03;;
29196;SDS011;62796;42.654;23.316;2022-09-16T06:32:22;16.77;;;3.58;;
29196;SDS011;62796;42.654;23.316;2022-09-16T06:34:48;11.90;;;3.13;;
29196;SDS011;62796;42.654;23.316;2022-09-16T06:37:14;16.73;;;3.65;;
29196;SDS011;62796;42.654;23.316;2022-09-16T06:39:40;11.38;;;3.55;;
29196;SDS011;62796;42.654;23.316;2022-09-16T06:42:06;17.73;;;4.20;;
29196;SDS011;62796;42.654;23.316;2022-09-16T06:44:32;12.75;;;3.53;;
29196;SDS011;62796;42.654;23.316;2022-09-16T06:46:58;23.40;;;5.07;;
29196;SDS011;62796;42.654;23.316;2022-09-16T06:49:23;12.38;;;3.17;;
29196;SDS011;62796;42.654;23.316;2022-09-16T06:51:49;15.00;;;4.13;;
29196;SDS011;62796;42.654;23.316;2022-09-16T06:54:15;22.90;;;4.85;;
29196;SDS011;62796;42.654;23.316;2022-09-16T06:56:41;20.77;;;4.53;;
29196;SDS011;62796;42.654;23.316;2022-09-16T06:59:07;14.55;;;4.07;;
29196;SDS011;62796;42.654;23.316;2022-09-16T07:01:33;20.90;;;4.25;;
29196;SDS011;62796;42.654;23.316;2022-09-16T07:04:01;18.23;;;3.30;;
29196;SDS011;62796;42.654;23.316;2022-09-16T07:06:29;13.13;;;3.55;;
29196;SDS011;62796;42.654;23.316;2022-09-16T07:08:55;12.23;;;2.88;;
29196;SDS011;62796;42.654;23.316;2022-09-16T07:11:21;12.57;;;3.53;;
29196;SDS011;62796;42.654;23.316;2022-09-16T07:13:48;15.15;;;3.53;;
29196;SDS011;62796;42.654;23.316;2022-09-16T07:16:18;10.25;;;2.70;;
29196;SDS011;62796;42.654;23.316;2022-09-16T07:18:46;13.13;;;4.60;;
29196;SDS011;62796;42.654;23.316;2022-09-16T07:23:37;12.32;;;3.80;;
29196;SDS011;62796;42.654;23.316;2022-09-16T07:26:06;14.77;;;3.20;;
29196;SDS011;62796;42.654;23.316;2022-09-16T07:28:34;13.88;;;3.90;;
29196;SDS011;62796;42.654;23.316;2022-09-16T07:31:03;18.33;;;3.95;;
29196;SDS011;62796;42.654;23.316;2022-09-16T07:33:34;14.45;;;3.83;;
29196;SDS011;62796;42.654;23.316;2022-09-16T07:36:01;13.80;;;5.30;;
29196;SDS011;62796;42.654;23.316;2022-09-16T07:38:29;17.30;;;4.15;;
29196;SDS011;62796;42.654;23.316;2022-09-16T07:40:55;11.35;;;3.05;;
29196;SDS011;62796;42.654;23.316;2022-09-16T07:43:20;9.05;;;3.53;;
29196;SDS011;62796;42.654;23.316;2022-09-16T07:45:46;9.07;;;3.00;;
29196;SDS011;62796;42.654;23.316;2022-09-16T07:48:18;14.73;;;3.38;;
29196;SDS011;62796;42.654;23.316;2022-09-16T07:50:52;14.60;;;3.40;;
29196;SDS011;62796;42.654;23.316;2022-09-16T07:53:18;17.08;;;3.28;;
29196;SDS011;62796;42.654;23.316;2022-09-16T07:55:44;15.43;;;3.35;;
29196;SDS011;62796;42.654;23.316;2022-09-16T07:58:09;20.42;;;4.00;;
29196;SDS011;62796;42.654;23.316;2022-09-16T08:00:34;15.00;;;4.53;;
29196;SDS011;62796;42.654;23.316;2022-09-16T08:03:00;14.02;;;3.90;;
29196;SDS011;62796;42.654;23.316;2022-09-16T08:05:25;14.63;;;3.72;;
29196;SDS011;62796;42.654;23.316;2022-09-16T08:07:50;10.85;;;3.10;;
29196;SDS011;62796;42.654;23.316;2022-09-16T08:10:16;13.77;;;3.22;;
29196;SDS011;62796;42.654;23.316;2022-09-16T08:12:44;9.52;;;3.58;;
29196;SDS011;62796;42.654;23.316;2022-09-16T08:15:11;13.90;;;3.55;;
29196;SDS011;62796;42.654;23.316;2022-09-16T08:17:36;11.43;;;3.63;;
29196;SDS011;62796;42.654;23.316;2022-09-16T08:20:02;14.35;;;4.22;;
29196;SDS011;62796;42.654;23.316;2022-09-16T08:22:30;17.08;;;3.78;;
29196;SDS011;62796;42.654;23.316;2022-09-16T08:24:56;12.23;;;3.22;;
29196;SDS011;62796;42.654;23.316;2022-09-16T08:27:21;21.60;;;4.22;;
29196;SDS011;62796;42.654;23.316;2022-09-16T08:29:46;17.17;;;3.92;;
29196;SDS011;62796;42.654;23.316;2022-09-16T08:32:13;9.85;;;2.70;;
29196;SDS011;62796;42.654;23.316;2022-09-16T08:34:38;16.98;;;3.45;;
29196;SDS011;62796;42.654;23.316;2022-09-16T08:37:04;15.77;;;3.47;;
29196;SDS011;62796;42.654;23.316;2022-09-16T08:39:30;13.13;;;3.88;;
29196;SDS011;62796;42.654;23.316;2022-09-16T08:50:18;9.20;;;3.20;;
29196;SDS011;62796;42.654;23.316;2022-09-16T08:52:50;13.23;;;4.03;;
29196;SDS011;62796;42.654;23.316;2022-09-16T08:55:23;9.52;;;3.30;;
29196;SDS011;62796;42.654;23.316;2022-09-16T09:01:03;13.50;;;3.13;;
29196;SDS011;62796;42.654;23.316;2022-09-16T09:03:36;11.40;;;3.40;;
29196;SDS011;62796;42.654;23.316;2022-09-16T09:17:03;14.10;;;4.40;;
29196;SDS011;62796;42.654;23.316;2022-09-16T09:27:58;18.70;;;4.63;;
29196;SDS011;62796;42.654;23.316;2022-09-16T09:30:33;18.25;;;4.65;;
29196;SDS011;62796;42.654;23.316;2022-09-16T09:33:03;12.70;;;3.83;;
29196;SDS011;62796;42.654;23.316;2022-09-16T09:38:46;25.70;;;6.03;;
29196;SDS011;62796;42.654;23.316;2022-09-16T09:44:23;18.75;;;5.85;;
29196;SDS011;62796;42.654;23.316;2022-09-16T09:46:56;14.23;;;5.40;;
29196;SDS011;62796;42.654;23.316;2022-09-16T09:52:16;19.13;;;4.60;;
29196;SDS011;62796;42.654;23.316;2022-09-16T09:54:50;25.17;;;4.47;;
29196;SDS011;62796;42.654;23.316;2022-09-16T09:57:21;21.98;;;4.75;;
29196;SDS011;62796;42.654;23.316;2022-09-16T10:02:28;24.48;;;4.85;;
29196;SDS011;62796;42.654;23.316;2022-09-16T10:04:53;14.82;;;4.03;;
29196;SDS011;62796;42.654;23.316;2022-09-16T10:07:20;25.30;;;4.90;;
29196;SDS011;62796;42.654;23.316;2022-09-16T10:09:52;19.90;;;5.28;;
29196;SDS011;62796;42.654;23.316;2022-09-16T10:14:54;13.20;;;4.03;;
29196;SDS011;62796;42.654;23.316;2022-09-16T10:17:19;15.98;;;4.75;;
29196;SDS011;62796;42.654;23.316;2022-09-16T10:25:46;16.13;;;4.00;;
29196;SDS011;62796;42.654;23.316;2022-09-16T10:28:19;18.05;;;4.10;;
29196;SDS011;62796;42.654;23.316;2022-09-16T10:30:50;19.90;;;4.70;;
29196;SDS011;62796;42.654;23.316;2022-09-16T10:33:26;15.38;;;3.83;;
29196;SDS011;62796;42.654;23.316;2022-09-16T10:38:38;22.75;;;4.22;;
29196;SDS011;62796;42.654;23.316;2022-09-16T10:41:06;9.85;;;3.35;;
29196;SDS011;62796;42.654;23.316;2022-09-16T10:44:11;9.48;;;3.00;;
29196;SDS011;62796;42.654;23.316;2022-09-16T10:46:37;13.07;;;2.50;;
29196;SDS011;62796;42.654;23.316;2022-09-16T10:49:15;8.82;;;2.40;;
29196;SDS011;62796;42.654;23.316;2022-09-16T10:51:50;8.85;;;2.75;;
29196;SDS011;62796;42.654;23.316;2022-09-16T10:54:23;9.65;;;2.20;;
29196;SDS011;62796;42.654;23.316;2022-09-16T10:56:52;6.63;;;1.80;;
29196;SDS011;62796;42.654;23.316;2022-09-16T10:59:18;9.82;;;1.80;;
29196;SDS011;62796;42.654;23.316;2022-09-16T11:09:44;8.05;;;1.85;;
29196;SDS011;62796;42.654;23.316;2022-09-16T11:46:15;2.47;;;1.05;;
29196;SDS011;62796;42.654;23.316;2022-09-16T11:59:17;6.25;;;1.88;;
29196;SDS011;62796;42.654;23.316;2022-09-16T12:01:48;4.67;;;1.47;;
29196;SDS011;62796;42.654;23.316;2022-09-16T12:04:27;6.57;;;1.90;;
29196;SDS011;62796;42.654;23.316;2022-09-16T12:06:59;5.00;;;1.30;;
29196;SDS011;62796;42.654;23.316;2022-09-16T12:09:33;3.50;;;1.75;;
29196;SDS011;62796;42.654;23.316;2022-09-16T12:12:39;2.03;;;1.10;;
29196;SDS011;62796;42.654;23.316;2022-09-16T12:15:04;5.07;;;1.52;;
29196;SDS011;62796;42.654;23.316;2022-09-16T12:17:38;3.88;;;1.25;;
29196;SDS011;62796;42.654;23.316;2022-09-16T12:22:44;10.43;;;2.10;;
29196;SDS011;62796;42.654;23.316;2022-09-16T12:25:16;5.47;;;2.20;;
29196;SDS011;62796;42.654;23.316;2022-09-16T12:27:51;9.38;;;2.33;;
29196;SDS011;62796;42.654;23.316;2022-09-16T12:30:21;9.82;;;2.72;;
29196;SDS011;62796;42.654;23.316;2022-09-16T12:35:44;4.75;;;2.17;;
29196;SDS011;62796;42.654;23.316;2022-09-16T12:38:26;7.95;;;2.50;;
29196;SDS011;62796;42.654;23.316;2022-09-16T12:41:38;10.70;;;2.25;;
29196;SDS011;62796;42.654;23.316;2022-09-16T12:46:35;13.52;;;2.85;;
29196;SDS011;62796;42.654;23.316;2022-09-16T12:57:21;9.27;;;2.63;;
29196;SDS011;62796;42.654;23.316;2022-09-16T13:02:58;7.05;;;2.33;;
29196;SDS011;62796;42.654;23.316;2022-09-16T13:07:53;10.45;;;2.78;;
29196;SDS011;62796;42.654;23.316;2022-09-16T13:10:31;9.77;;;3.17;;
29196;SDS011;62796;42.654;23.316;2022-09-16T13:12:59;8.95;;;3.15;;
29196;SDS011;62796;42.654;23.316;2022-09-16T13:15:32;6.72;;;2.78;;
29196;SDS011;62796;42.654;23.316;2022-09-16T13:20:41;8.02;;;3.30;;
29196;SDS011;62796;42.654;23.316;2022-09-16T13:23:19;13.32;;;2.95;;
29196;SDS011;62796;42.654;23.316;2022-09-16T13:33:41;3.53;;;1.58;;
29196;SDS011;62796;42.654;23.316;2022-09-16T13:36:12;4.97;;;1.20;;
29196;SDS011;62796;42.654;23.316;2022-09-16T13:39:04;7.05;;;1.75;;
29196;SDS011;62796;42.654;23.316;2022-09-16T13:41:38;6.10;;;1.60;;
29196;SDS011;62796;42.654;23.316;2022-09-16T13:49:33;5.97;;;1.88;;
29196;SDS011;62796;42.654;23.316;2022-09-16T13:52:08;4.00;;;1.85;;
29196;SDS011;62796;42.654;23.316;2022-09-16T13:54:40;7.88;;;2.22;;
29196;SDS011;62796;42.654;23.316;2022-09-16T13:57:24;6.43;;;2.80;;
29196;SDS011;62796;42.654;23.316;2022-09-16T14:11:04;8.27;;;3.40;;
29196;SDS011;62796;42.654;23.316;2022-09-16T14:13:48;8.93;;;2.28;;
29196;SDS011;62796;42.654;23.316;2022-09-16T14:16:24;5.93;;;2.60;;
29196;SDS011;62796;42.654;23.316;2022-09-16T14:18:54;5.68;;;2.78;;
29196;SDS011;62796;42.654;23.316;2022-09-16T14:21:22;7.65;;;2.83;;
29196;SDS011;62796;42.654;23.316;2022-09-16T14:23:48;7.35;;;2.42;;
29196;SDS011;62796;42.654;23.316;2022-09-16T14:26:16;5.78;;;2.03;;
29196;SDS011;62796;42.654;23.316;2022-09-16T14:28:43;4.88;;;2.30;;
29196;SDS011;62796;42.654;23.316;2022-09-16T14:31:11;8.25;;;2.13;;
29196;SDS011;62796;42.654;23.316;2022-09-16T14:33:48;10.68;;;2.08;;
29196;SDS011;62796;42.654;23.316;2022-09-16T14:36:22;4.18;;;1.95;;
29196;SDS011;62796;42.654;23.316;2022-09-16T14:41:46;5.47;;;1.90;;
29196;SDS011;62796;42.654;23.316;2022-09-16T14:46:57;8.27;;;1.98;;
29196;SDS011;62796;42.654;23.316;2022-09-16T14:49:26;3.95;;;2.33;;
29196;SDS011;62796;42.654;23.316;2022-09-16T14:51:57;5.43;;;2.67;;
29196;SDS011;62796;42.654;23.316;2022-09-16T14:54:28;5.85;;;2.50;;
29196;SDS011;62796;42.654;23.316;2022-09-16T14:56:58;12.50;;;6.57;;
29196;SDS011;62796;42.654;23.316;2022-09-16T14:59:26;7.47;;;4.65;;
29196;SDS011;62796;42.654;23.316;2022-09-16T15:01:58;7.80;;;2.90;;
29196;SDS011;62796;42.654;23.316;2022-09-16T15:04:29;10.10;;;2.65;;
29196;SDS011;62796;42.654;23.316;2022-09-16T15:06:59;9.00;;;3.15;;
29196;SDS011;62796;42.654;23.316;2022-09-16T15:09:41;6.60;;;2.47;;
29196;SDS011;62796;42.654;23.316;2022-09-16T15:12:17;6.13;;;2.80;;
29196;SDS011;62796;42.654;23.316;2022-09-16T15:14:47;6.55;;;2.38;;
29196;SDS011;62796;42.654;23.316;2022-09-16T15:17:15;10.80;;;2.28;;
29196;SDS011;62796;42.654;23.316;2022-09-16T15:19:47;5.43;;;2.50;;
29196;SDS011;62796;42.654;23.316;2022-09-16T15:22:17;9.23;;;2.30;;
29196;SDS011;62796;42.654;23.316;2022-09-16T15:24:44;5.30;;;1.80;;
29196;SDS011;62796;42.654;23.316;2022-09-16T15:27:24;3.03;;;1.92;;
29196;SDS011;62796;42.654;23.316;2022-09-16T15:29:53;7.07;;;2.20;;
29196;SDS011;62796;42.654;23.316;2022-09-16T15:32:23;11.77;;;2.60;;
29196;SDS011;62796;42.654;23.316;2022-09-16T15:38:09;7.57;;;2.83;;
29196;SDS011;62796;42.654;23.316;2022-09-16T15:40:36;16.83;;;11.60;;
29196;SDS011;62796;42.654;23.316;2022-09-16T15:43:13;17.42;;;8.23;;
29196;SDS011;62796;42.654;23.316;2022-09-16T15:45:43;12.05;;;4.30;;
29196;SDS011;62796;42.654;23.316;2022-09-16T15:48:17;7.07;;;3.10;;
29196;SDS011;62796;42.654;23.316;2022-09-16T15:50:46;8.88;;;3.20;;
29196;SDS011;62796;42.654;23.316;2022-09-16T15:53:29;18.67;;;11.45;;
29196;SDS011;62796;42.654;23.316;2022-09-16T15:56:04;9.73;;;4.35;;
29196;SDS011;62796;42.654;23.316;2022-09-16T15:58:45;9.52;;;3.92;;
29196;SDS011;62796;42.654;23.316;2022-09-16T16:04:06;7.45;;;2.47;;
29196;SDS011;62796;42.654;23.316;2022-09-16T16:14:23;7.53;;;2.72;;
29196;SDS011;62796;42.654;23.316;2022-09-16T16:16:51;12.68;;;5.20;;
29196;SDS011;62796;42.654;23.316;2022-09-16T16:19:17;5.55;;;2.95;;
29196;SDS011;62796;42.654;23.316;2022-09-16T16:21:43;10.27;;;3.38;;
29196;SDS011;62796;42.654;23.316;2022-09-16T16:24:13;9.80;;;3.55;;
29196;SDS011;62796;42.654;23.316;2022-09-16T16:26:41;9.70;;;3.15;;
29196;SDS011;62796;42.654;23.316;2022-09-16T16:29:07;8.85;;;3.15;;
29196;SDS011;62796;42.654;23.316;2022-09-16T16:31:33;9.30;;;4.10;;
29196;SDS011;62796;42.654;23.316;2022-09-16T16:34:01;11.32;;;3.63;;
29196;SDS011;62796;42.654;23.316;2022-09-16T16:36:27;10.27;;;4.20;;
29196;SDS011;62796;42.654;23.316;2022-09-16T16:38:53;8.77;;;3.53;;
29196;SDS011;62796;42.654;23.316;2022-09-16T16:41:22;12.88;;;5.72;;
29196;SDS011;62796;42.654;23.316;2022-09-16T16:43:49;12.10;;;3.72;;
29196;SDS011;62796;42.654;23.316;2022-09-16T16:46:15;10.98;;;3.92;;
29196;SDS011;62796;42.654;23.316;2022-09-16T16:48:42;12.73;;;4.22;;
29196;SDS011;62796;42.654;23.316;2022-09-16T16:51:09;11.57;;;3.70;;
29196;SDS011;62796;42.654;23.316;2022-09-16T16:53:36;15.52;;;3.70;;
29196;SDS011;62796;42.654;23.316;2022-09-16T16:56:06;9.18;;;3.60;;
29196;SDS011;62796;42.654;23.316;2022-09-16T16:58:34;8.23;;;3.70;;
29196;SDS011;62796;42.654;23.316;2022-09-16T17:01:10;10.60;;;3.97;;
29196;SDS011;62796;42.654;23.316;2022-09-16T17:03:36;11.75;;;3.90;;
29196;SDS011;62796;42.654;23.316;2022-09-16T17:06:02;10.02;;;4.28;;
29196;SDS011;62796;42.654;23.316;2022-09-16T17:08:29;8.80;;;3.70;;
29196;SDS011;62796;42.654;23.316;2022-09-16T17:13:34;10.85;;;4.25;;
29196;SDS011;62796;42.654;23.316;2022-09-16T17:16:00;14.25;;;4.45;;
29196;SDS011;62796;42.654;23.316;2022-09-16T17:18:25;15.07;;;4.45;;
29196;SDS011;62796;42.654;23.316;2022-09-16T17:20:51;9.48;;;4.40;;
29196;SDS011;62796;42.654;23.316;2022-09-16T17:23:16;11.38;;;3.83;;
29196;SDS011;62796;42.654;23.316;2022-09-16T17:25:41;12.15;;;5.60;;
29196;SDS011;62796;42.654;23.316;2022-09-16T17:28:07;12.88;;;4.32;;
29196;SDS011;62796;42.654;23.316;2022-09-16T17:30:32;11.50;;;4.22;;
29196;SDS011;62796;42.654;23.316;2022-09-16T17:32:58;11.82;;;4.40;;
29196;SDS011;62796;42.654;23.316;2022-09-16T17:35:23;9.10;;;4.72;;
29196;SDS011;62796;42.654;23.316;2022-09-16T17:37:49;9.48;;;4.35;;
29196;SDS011;62796;42.654;23.316;2022-09-16T17:40:14;12.88;;;4.38;;
29196;SDS011;62796;42.654;23.316;2022-09-16T17:42:39;9.07;;;3.72;;
29196;SDS011;62796;42.654;23.316;2022-09-16T17:45:05;11.70;;;3.95;;
29196;SDS011;62796;42.654;23.316;2022-09-16T17:47:32;8.77;;;3.65;;
29196;SDS011;62796;42.654;23.316;2022-09-16T17:49:58;9.38;;;3.80;;
29196;SDS011;62796;42.654;23.316;2022-09-16T17:52:27;9.50;;;4.32;;
29196;SDS011;62796;42.654;23.316;2022-09-16T17:54:53;9.38;;;3.78;;
29196;SDS011;62796;42.654;23.316;2022-09-16T17:57:18;13.13;;;4.45;;
29196;SDS011;62796;42.654;23.316;2022-09-16T17:59:44;9.20;;;3.83;;
29196;SDS011;62796;42.654;23.316;2022-09-16T18:02:09;8.82;;;3.45;;
29196;SDS011;62796;42.654;23.316;2022-09-16T18:04:36;7.93;;;3.40;;
29196;SDS011;62796;42.654;23.316;2022-09-16T18:07:01;9.27;;;4.10;;
29196;SDS011;62796;42.654;23.316;2022-09-16T18:09:26;10.60;;;3.67;;
29196;SDS011;62796;42.654;23.316;2022-09-16T18:11:52;10.45;;;4.13;;
29196;SDS011;62796;42.654;23.316;2022-09-16T18:14:17;9.68;;;3.80;;
29196;SDS011;62796;42.654;23.316;2022-09-16T18:16:43;7.25;;;3.58;;
29196;SDS011;62796;42.654;23.316;2022-09-16T18:19:09;8.77;;;3.60;;
29196;SDS011;62796;42.654;23.316;2022-09-16T18:21:34;6.38;;;3.38;;
29196;SDS011;62796;42.654;23.316;2022-09-16T18:24:02;9.75;;;3.85;;
29196;SDS011;62796;42.654;23.316;2022-09-16T18:26:28;7.53;;;3.28;;